createdAt,value
2023-03-12T00:00:06.970Z,9.41
2023-03-12T00:02:40.906Z,9.44
2023-03-12T00:05:14.067Z,9.50
2023-03-12T00:07:47.148Z,9.56
2023-03-12T00:10:21.544Z,9.59
2023-03-12T00:12:55.437Z,9.63
2023-03-12T00:15:29.079Z,9.64
2023-03-12T00:18:02.190Z,9.63
2023-03-12T00:20:35.470Z,9.65
2023-03-12T00:23:08.420Z,9.66
2023-03-12T00:25:41.530Z,9.66
2023-03-12T00:28:16.040Z,9.69
2023-03-12T00:30:49.525Z,9.68
2023-03-12T00:33:25.573Z,9.67
2023-03-12T00:36:02.210Z,9.64
2023-03-12T00:38:36.161Z,9.62
2023-03-12T00:41:09.070Z,9.61
2023-03-12T00:43:42.003Z,9.56
2023-03-12T00:46:15.561Z,9.54
2023-03-12T00:48:48.995Z,9.51
2023-03-12T00:51:22.431Z,9.49
2023-03-12T00:53:56.202Z,9.49
2023-03-12T00:56:29.300Z,9.51
2023-03-12T00:59:03.094Z,9.50
2023-03-12T01:01:36.215Z,9.48
2023-03-12T01:04:10.774Z,9.47
2023-03-12T01:06:46.161Z,9.49
2023-03-12T01:09:20.852Z,9.50
2023-03-12T01:11:53.671Z,9.50
2023-03-12T01:14:26.935Z,9.50
2023-03-12T01:16:59.974Z,9.51
2023-03-12T01:19:33.535Z,9.51
2023-03-12T01:22:06.645Z,9.52
2023-03-12T01:24:41.570Z,9.52
2023-03-12T01:27:14.616Z,9.53
2023-03-12T01:29:47.605Z,9.52
2023-03-12T01:32:20.652Z,9.52
2023-03-12T01:34:53.685Z,9.51
2023-03-12T01:37:27.262Z,9.50
2023-03-12T01:40:00.043Z,9.45
2023-03-12T01:42:33.439Z,9.44
2023-03-12T01:45:08.110Z,9.44
2023-03-12T01:47:40.983Z,9.42
2023-03-12T01:50:15.461Z,9.39
2023-03-12T01:52:48.638Z,9.35
2023-03-12T01:55:21.617Z,9.31
2023-03-12T01:57:57.424Z,9.28
2023-03-12T02:00:30.397Z,9.26
2023-03-12T02:03:07.995Z,9.23
2023-03-12T02:06:03.607Z,9.22
2023-03-12T02:08:44.086Z,9.23
2023-03-12T02:11:18.554Z,9.20
2023-03-12T02:13:51.536Z,9.15
2023-03-12T02:16:25.842Z,9.11
2023-03-12T02:18:59.844Z,9.08
2023-03-12T02:21:35.419Z,9.08
2023-03-12T02:24:24.553Z,9.09
2023-03-12T02:26:59.164Z,9.10
2023-03-12T02:29:34.512Z,9.11
2023-03-12T02:32:09.222Z,9.12
2023-03-12T02:34:41.245Z,9.12
2023-03-12T02:37:16.761Z,9.14
2023-03-12T02:40:03.876Z,9.12
2023-03-12T02:42:38.504Z,9.11
2023-03-12T02:45:12.900Z,9.09
2023-03-12T02:47:46.337Z,9.11
2023-03-12T02:50:19.204Z,9.09
2023-03-12T02:52:52.167Z,9.08
2023-03-12T02:55:25.631Z,9.04
2023-03-12T02:57:58.473Z,9.04
2023-03-12T03:00:32.535Z,9.05
2023-03-12T03:03:06.426Z,9.07
2023-03-12T03:05:39.601Z,9.04
2023-03-12T03:08:14.168Z,9.02
2023-03-12T03:10:47.847Z,9.04
2023-03-12T03:13:20.791Z,9.01
2023-03-12T03:15:54.961Z,9.02
2023-03-12T03:18:31.141Z,9.03
2023-03-12T03:21:07.584Z,9.03
2023-03-12T03:23:41.918Z,9.04
2023-03-12T03:26:15.560Z,9.05
2023-03-12T03:28:48.702Z,9.08
2023-03-12T03:31:22.216Z,9.09
2023-03-12T03:33:55.592Z,9.08
2023-03-12T03:36:28.652Z,9.10
2023-03-12T03:39:09.322Z,9.13
2023-03-12T03:41:43.416Z,9.14
2023-03-12T03:44:16.752Z,9.16
2023-03-12T03:46:51.356Z,9.18
2023-03-12T03:49:25.166Z,9.18
2023-03-12T03:51:58.715Z,9.19
2023-03-12T03:54:34.199Z,9.17
2023-03-12T03:57:08.375Z,9.18
2023-03-12T03:59:41.453Z,9.20
2023-03-12T04:02:14.884Z,9.20
2023-03-12T04:04:48.225Z,9.21
2023-03-12T04:07:21.561Z,9.22
2023-03-12T04:09:54.586Z,9.22
2023-03-12T04:12:29.000Z,9.23
2023-03-12T04:15:02.485Z,9.25
2023-03-12T04:17:35.436Z,9.24
2023-03-12T04:20:11.379Z,9.22
2023-03-12T04:22:45.299Z,9.19
2023-03-12T04:25:18.603Z,9.18
2023-03-12T04:27:52.062Z,9.15
2023-03-12T04:30:25.653Z,9.15
2023-03-12T04:32:58.756Z,9.14
2023-03-12T04:35:32.953Z,9.12
2023-03-12T04:38:06.228Z,9.10
2023-03-12T04:40:39.394Z,9.08
2023-03-12T04:43:12.931Z,9.06
2023-03-12T04:45:46.076Z,9.06
2023-03-12T04:48:20.880Z,9.07
2023-03-12T04:50:55.547Z,9.06
2023-03-12T04:53:29.256Z,9.05
2023-03-12T04:56:02.746Z,9.05
2023-03-12T04:58:36.182Z,9.06
2023-03-12T05:01:11.305Z,9.05
2023-03-12T05:03:44.694Z,9.05
2023-03-12T05:06:17.688Z,9.07
2023-03-12T05:08:51.331Z,9.09
2023-03-12T05:11:25.501Z,9.13
2023-03-12T05:13:59.269Z,9.13
2023-03-12T05:16:34.128Z,9.15
2023-03-12T05:19:07.964Z,9.17
2023-03-12T05:21:43.285Z,9.17
2023-03-12T05:24:17.332Z,9.18
2023-03-12T05:26:51.994Z,9.20
2023-03-12T05:29:26.741Z,9.20
2023-03-12T05:32:00.706Z,9.22
2023-03-12T05:34:33.194Z,9.24
2023-03-12T05:37:06.858Z,9.23
2023-03-12T05:39:42.864Z,9.26
2023-03-12T05:42:18.728Z,9.23
2023-03-12T05:44:52.822Z,9.23
2023-03-12T05:47:26.568Z,9.23
2023-03-12T05:49:59.685Z,9.27
2023-03-12T05:52:34.257Z,9.29
2023-03-12T05:55:08.764Z,9.31
2023-03-12T05:57:42.194Z,9.34
2023-03-12T06:00:16.965Z,9.38
2023-03-12T06:02:53.296Z,9.41
2023-03-12T06:05:26.390Z,9.43
2023-03-12T06:08:00.633Z,9.43
2023-03-12T06:10:34.004Z,9.40
2023-03-12T06:13:09.023Z,9.39
2023-03-12T06:15:42.659Z,9.40
2023-03-12T06:18:16.273Z,9.41
2023-03-12T06:20:49.315Z,9.46
2023-03-12T06:23:22.721Z,9.46
2023-03-12T06:25:55.745Z,9.44
2023-03-12T06:28:29.909Z,9.40
2023-03-12T06:31:03.853Z,9.35
2023-03-12T06:33:37.397Z,9.32
2023-03-12T06:36:11.682Z,9.27
2023-03-12T06:38:44.836Z,9.26
2023-03-12T06:41:21.161Z,9.22
2023-03-12T06:43:54.557Z,9.21
2023-03-12T06:46:28.321Z,9.19
2023-03-12T06:49:02.980Z,9.15
2023-03-12T06:51:35.977Z,9.11
2023-03-12T06:54:09.110Z,9.10
2023-03-12T06:56:42.562Z,9.08
2023-03-12T06:59:15.546Z,9.09
2023-03-12T07:01:49.802Z,9.08
2023-03-12T07:04:22.855Z,9.09
2023-03-12T07:06:55.893Z,9.10
2023-03-12T07:09:32.415Z,9.09
2023-03-12T07:12:09.934Z,9.09
2023-03-12T07:14:42.755Z,9.13
2023-03-12T07:17:17.615Z,9.17
2023-03-12T07:19:51.105Z,9.21
2023-03-12T07:22:24.158Z,9.24
2023-03-12T07:24:58.396Z,9.31
2023-03-12T07:27:32.179Z,9.37
2023-03-12T07:30:06.095Z,9.44
2023-03-12T07:32:40.021Z,9.55
2023-03-12T07:35:12.932Z,9.65
2023-03-12T07:37:46.493Z,9.73
2023-03-12T07:40:19.566Z,9.76
2023-03-12T07:42:53.402Z,9.77
2023-03-12T07:45:26.793Z,9.78
2023-03-12T07:48:00.296Z,9.81
2023-03-12T07:50:33.913Z,9.85
2023-03-12T07:53:08.010Z,9.92
2023-03-12T07:55:41.557Z,10.00
2023-03-12T07:58:16.126Z,10.07
2023-03-12T08:00:49.810Z,10.10
2023-03-12T08:03:23.985Z,10.11
2023-03-12T08:06:03.003Z,10.17
2023-03-12T08:08:38.143Z,10.21
2023-03-12T08:11:11.582Z,10.17
2023-03-12T08:13:46.585Z,10.10
2023-03-12T08:16:19.771Z,10.03
2023-03-12T08:18:53.197Z,10.02
2023-03-12T08:21:26.150Z,10.06
2023-03-12T08:23:59.160Z,10.11
2023-03-12T08:26:32.656Z,10.13
2023-03-12T08:29:05.791Z,10.22
2023-03-12T08:31:41.856Z,10.33
2023-03-12T08:34:14.242Z,10.42
2023-03-12T08:36:47.169Z,10.52
2023-03-12T08:39:20.640Z,10.61
2023-03-12T08:41:55.614Z,10.63
2023-03-12T08:44:27.765Z,10.63
2023-03-12T08:47:00.459Z,10.62
2023-03-12T08:49:33.545Z,10.60
2023-03-12T08:52:06.943Z,10.57
2023-03-12T08:54:39.924Z,10.50
2023-03-12T08:57:13.457Z,10.43
2023-03-12T08:59:46.538Z,10.37
2023-03-12T09:02:20.211Z,10.34
2023-03-12T09:04:53.696Z,10.31
2023-03-12T09:07:26.897Z,10.24
2023-03-12T09:10:01.411Z,10.21
2023-03-12T09:12:34.853Z,10.24
2023-03-12T09:15:09.644Z,10.28
2023-03-12T09:17:42.871Z,10.36
2023-03-12T09:20:16.763Z,10.46
2023-03-12T09:22:50.052Z,10.55
2023-03-12T09:25:23.557Z,10.59
2023-03-12T09:27:56.696Z,10.61
2023-03-12T09:30:30.819Z,10.68
2023-03-12T09:33:03.660Z,10.74
2023-03-12T09:35:37.622Z,10.76
2023-03-12T09:38:16.301Z,10.70
2023-03-12T09:40:50.222Z,10.63
2023-03-12T09:43:35.084Z,10.57
2023-03-12T09:46:19.004Z,10.50
2023-03-12T09:48:54.077Z,10.43
2023-03-12T09:51:42.561Z,10.47
2023-03-12T09:54:41.077Z,10.58
2023-03-12T09:57:18.479Z,10.70
2023-03-12T09:59:52.904Z,10.78
2023-03-12T10:02:34.890Z,10.76
2023-03-12T10:05:35.740Z,10.73
2023-03-12T10:08:30.734Z,10.71
2023-03-12T10:11:32.659Z,10.68
2023-03-12T10:14:23.856Z,10.63
2023-03-12T10:17:12.286Z,10.59
2023-03-12T10:20:16.268Z,10.59
2023-03-12T10:22:57.262Z,10.60
2023-03-12T10:25:43.499Z,10.62
2023-03-12T10:28:34.372Z,10.65
2023-03-12T10:31:20.777Z,10.74
2023-03-12T10:34:03.419Z,10.80
2023-03-12T10:36:40.710Z,10.88
2023-03-12T10:39:20.811Z,10.94
2023-03-12T10:41:54.312Z,11.02
2023-03-12T10:44:28.317Z,11.07
2023-03-12T10:47:22.787Z,11.09
2023-03-12T10:49:56.077Z,11.11
2023-03-12T10:52:28.978Z,11.08
2023-03-12T10:55:03.583Z,10.99
2023-03-12T10:57:43.695Z,10.95
2023-03-12T11:00:27.532Z,10.88
2023-03-12T11:03:09.688Z,10.82
2023-03-12T11:05:52.302Z,10.83
2023-03-12T11:08:34.674Z,10.83
2023-03-12T11:11:08.551Z,10.82
2023-03-12T11:13:43.395Z,10.74
2023-03-12T11:16:31.445Z,10.59
2023-03-12T11:19:05.456Z,10.37
2023-03-12T11:21:40.648Z,10.17
2023-03-12T11:24:16.468Z,10.03
2023-03-12T11:27:04.195Z,9.92
2023-03-12T11:29:43.719Z,9.81
2023-03-12T11:32:21.512Z,9.75
2023-03-12T11:34:54.878Z,9.67
2023-03-12T11:37:47.339Z,9.68
2023-03-12T11:40:56.536Z,9.72
2023-03-12T11:44:05.941Z,9.64
2023-03-12T11:47:06.719Z,9.58
2023-03-12T11:49:57.114Z,9.53
2023-03-12T11:53:00.578Z,9.50
2023-03-12T11:55:55.604Z,9.45
2023-03-12T11:58:48.349Z,9.34
2023-03-12T12:01:44.202Z,9.26
2023-03-12T12:04:46.781Z,9.30
2023-03-12T12:07:56.334Z,9.39
2023-03-12T12:11:01.310Z,9.45
2023-03-12T12:14:12.147Z,9.46
2023-03-12T12:16:58.461Z,9.52
2023-03-12T12:19:54.740Z,9.57
2023-03-12T12:22:55.219Z,9.63
2023-03-12T12:25:42.200Z,9.66
2023-03-12T12:28:32.604Z,9.63
2023-03-12T12:31:31.947Z,9.57
2023-03-12T12:34:31.595Z,9.58
2023-03-12T12:37:26.145Z,9.52
2023-03-12T12:40:19.030Z,9.50
2023-03-12T12:43:00.356Z,9.55
2023-03-12T12:45:33.746Z,9.54
2023-03-12T12:48:27.875Z,9.50
2023-03-12T12:51:02.493Z,9.43
2023-03-12T12:53:49.966Z,9.35
2023-03-12T12:56:54.254Z,9.29
2023-03-12T12:59:49.864Z,9.20
2023-03-12T13:02:33.242Z,9.11
2023-03-12T13:05:06.657Z,9.03
2023-03-12T13:07:39.823Z,9.01
2023-03-12T13:10:41.879Z,9.00
2023-03-12T13:13:26.245Z,8.97
2023-03-12T13:16:40.041Z,8.89
2023-03-12T13:19:21.704Z,8.76
2023-03-12T13:22:08.861Z,8.63
2023-03-12T13:24:50.807Z,8.61
2023-03-12T13:27:27.654Z,8.58
2023-03-12T13:30:02.346Z,8.48
2023-03-12T13:32:42.040Z,8.42
2023-03-12T13:35:22.779Z,8.32
2023-03-12T13:38:02.993Z,8.30
2023-03-12T13:41:00.056Z,8.32
2023-03-12T13:43:44.496Z,8.26
2023-03-12T13:46:40.514Z,8.23
2023-03-12T13:49:17.038Z,8.22
2023-03-12T13:52:06.132Z,8.12
2023-03-12T13:54:42.814Z,8.10
2023-03-12T13:57:29.401Z,7.98
2023-03-12T14:00:05.621Z,7.88
2023-03-12T14:02:44.401Z,7.77
2023-03-12T14:05:18.308Z,7.61
2023-03-12T14:08:10.142Z,7.47
2023-03-12T14:11:06.872Z,7.34
2023-03-12T14:14:30.778Z,7.19
2023-03-12T14:17:06.184Z,7.01
2023-03-12T14:19:40.990Z,6.87
2023-03-12T14:22:16.059Z,6.83
2023-03-12T14:24:58.870Z,6.79
2023-03-12T14:27:34.689Z,6.77
2023-03-12T14:30:33.876Z,6.68
2023-03-12T14:33:07.531Z,6.67
2023-03-12T14:35:52.848Z,6.66
2023-03-12T14:38:30.161Z,6.61
2023-03-12T14:41:11.256Z,6.51
2023-03-12T14:43:46.847Z,6.39
2023-03-12T14:46:25.504Z,6.28
2023-03-12T14:48:59.530Z,6.22
2023-03-12T14:51:35.111Z,6.23
2023-03-12T14:54:11.453Z,6.18
2023-03-12T14:56:46.632Z,6.14
2023-03-12T14:59:37.143Z,6.14
2023-03-12T15:02:19.798Z,6.12
2023-03-12T15:04:57.800Z,6.02
2023-03-12T15:07:35.232Z,5.94
2023-03-12T15:10:25.042Z,5.91
2023-03-12T15:13:01.690Z,5.84
2023-03-12T15:15:42.579Z,5.75
2023-03-12T15:18:22.432Z,5.68
2023-03-12T15:20:57.517Z,5.59
2023-03-12T15:23:34.203Z,5.56
2023-03-12T15:26:20.954Z,5.50
2023-03-12T15:29:20.759Z,5.48
2023-03-12T15:31:57.579Z,5.42
2023-03-12T15:34:38.074Z,5.38
2023-03-12T15:37:37.624Z,5.34
2023-03-12T15:40:31.193Z,5.32
2023-03-12T15:43:06.365Z,5.30
2023-03-12T15:45:41.456Z,5.27
2023-03-12T15:48:30.164Z,5.24
2023-03-12T15:51:03.236Z,5.24
2023-03-12T15:53:37.123Z,5.22
2023-03-12T15:56:17.677Z,5.19
2023-03-12T15:59:11.836Z,5.20
2023-03-12T16:01:50.992Z,5.15
2023-03-12T16:04:25.128Z,5.00
2023-03-12T16:06:58.072Z,4.85
2023-03-12T16:09:33.105Z,4.74
2023-03-12T16:12:07.325Z,4.70
2023-03-12T16:14:41.060Z,4.73
2023-03-12T16:17:18.012Z,4.70
2023-03-12T16:19:51.107Z,4.65
2023-03-12T16:22:24.319Z,4.59
2023-03-12T16:24:57.970Z,4.57
2023-03-12T16:27:32.838Z,4.44
2023-03-12T16:30:10.898Z,4.35
2023-03-12T16:32:44.076Z,4.35
2023-03-12T16:35:20.520Z,4.32
2023-03-12T16:37:53.762Z,4.29
2023-03-12T16:40:33.641Z,4.22
2023-03-12T16:43:06.055Z,4.16
2023-03-12T16:45:39.256Z,4.18
2023-03-12T16:48:15.928Z,4.15
2023-03-12T16:50:54.882Z,4.08
2023-03-12T16:53:28.619Z,3.94
2023-03-12T16:56:02.811Z,3.83
2023-03-12T16:58:36.502Z,3.78
2023-03-12T17:01:15.639Z,3.76
2023-03-12T17:03:50.472Z,3.74
2023-03-12T17:06:29.528Z,3.78
2023-03-12T17:09:02.449Z,3.80
2023-03-12T17:11:35.813Z,3.80
2023-03-12T17:14:22.265Z,3.80
2023-03-12T17:16:55.992Z,3.78
2023-03-12T17:19:29.462Z,3.77
2023-03-12T17:22:03.915Z,3.76
2023-03-12T17:24:39.466Z,3.72
2023-03-12T17:27:12.673Z,3.63
2023-03-12T17:29:45.797Z,3.60
2023-03-12T17:32:19.762Z,3.57
2023-03-12T17:35:01.053Z,3.56
2023-03-12T17:37:36.005Z,3.53
2023-03-12T17:40:11.207Z,3.52
2023-03-12T17:42:44.974Z,3.47
2023-03-12T17:45:18.512Z,3.44
2023-03-12T17:47:51.323Z,3.41
2023-03-12T17:50:24.752Z,3.37
2023-03-12T17:52:57.480Z,3.36
2023-03-12T17:55:30.254Z,3.35
2023-03-12T17:58:03.623Z,3.33
2023-03-12T18:00:38.234Z,3.29
2023-03-12T18:03:10.525Z,3.28
2023-03-12T18:05:43.301Z,3.28
2023-03-12T18:08:17.084Z,3.24
2023-03-12T18:10:50.920Z,3.26
2023-03-12T18:13:24.397Z,3.24
2023-03-12T18:15:59.656Z,3.24
2023-03-12T18:18:32.571Z,3.22
2023-03-12T18:21:06.127Z,3.22
2023-03-12T18:23:39.423Z,3.21
2023-03-12T18:26:13.062Z,3.20
2023-03-12T18:28:45.946Z,3.22
2023-03-12T18:31:18.907Z,3.22
2023-03-12T18:33:52.612Z,3.19
2023-03-12T18:36:25.667Z,3.19
2023-03-12T18:38:59.680Z,3.19
2023-03-12T18:41:33.220Z,3.19
2023-03-12T18:44:06.897Z,3.17
2023-03-12T18:46:39.902Z,3.18
2023-03-12T18:49:15.558Z,3.18
2023-03-12T18:51:51.338Z,3.22
2023-03-12T18:54:25.456Z,3.24
2023-03-12T18:56:58.763Z,3.22
2023-03-12T18:59:32.482Z,3.14
2023-03-12T19:02:05.646Z,3.10
2023-03-12T19:04:38.643Z,3.07
2023-03-12T19:07:12.242Z,3.05
2023-03-12T19:09:45.950Z,3.05
2023-03-12T19:12:19.091Z,3.05
2023-03-12T19:14:51.943Z,3.05
2023-03-12T19:17:24.829Z,3.02
2023-03-12T19:19:57.858Z,3.05
2023-03-12T19:22:30.501Z,3.08
2023-03-12T19:25:03.997Z,3.05
2023-03-12T19:27:37.294Z,3.03
2023-03-12T19:30:11.766Z,2.96
2023-03-12T19:32:44.945Z,2.90
2023-03-12T19:35:18.725Z,2.88
2023-03-12T19:37:51.864Z,2.83
2023-03-12T19:40:24.869Z,2.79
2023-03-12T19:42:57.621Z,2.76
2023-03-12T19:45:30.570Z,2.75
2023-03-12T19:48:04.268Z,2.69
2023-03-12T19:50:37.086Z,2.63
2023-03-12T19:53:11.040Z,2.54
2023-03-12T19:55:44.004Z,2.49
2023-03-12T19:58:17.698Z,2.43
2023-03-12T20:00:50.647Z,2.39
2023-03-12T20:03:23.552Z,2.38
2023-03-12T20:05:57.225Z,2.35
2023-03-12T20:08:33.375Z,2.34
2023-03-12T20:11:10.397Z,2.35
2023-03-12T20:13:43.291Z,2.38
2023-03-12T20:16:17.139Z,2.40
2023-03-12T20:18:51.717Z,2.33
2023-03-12T20:21:24.631Z,2.27
2023-03-12T20:24:00.284Z,2.22
2023-03-12T20:26:33.792Z,2.19
2023-03-12T20:29:07.874Z,2.13
2023-03-12T20:31:43.318Z,2.08
2023-03-12T20:34:16.358Z,2.07
2023-03-12T20:36:49.852Z,2.02
2023-03-12T20:39:23.022Z,1.95
2023-03-12T20:41:56.269Z,1.90
2023-03-12T20:44:28.901Z,1.87
2023-03-12T20:47:01.966Z,1.82
2023-03-12T20:49:35.875Z,1.77
2023-03-12T20:52:08.703Z,1.73
2023-03-12T20:54:42.251Z,1.68
2023-03-12T20:57:15.166Z,1.61
2023-03-12T20:59:47.844Z,1.55
2023-03-12T21:02:21.000Z,1.53
2023-03-12T21:04:54.463Z,1.50
2023-03-12T21:07:28.216Z,1.48
2023-03-12T21:10:01.016Z,1.49
2023-03-12T21:12:34.691Z,1.49
2023-03-12T21:15:10.177Z,1.46
2023-03-12T21:17:43.609Z,1.39
2023-03-12T21:20:19.773Z,1.31
2023-03-12T21:22:53.038Z,1.29
2023-03-12T21:25:25.901Z,1.28
2023-03-12T21:28:00.223Z,1.30
2023-03-12T21:30:33.547Z,1.26
2023-03-12T21:33:07.708Z,1.26
2023-03-12T21:35:46.928Z,1.27
2023-03-12T21:38:21.424Z,1.26
2023-03-12T21:40:54.544Z,1.29
2023-03-12T21:43:30.120Z,1.29
2023-03-12T21:46:12.888Z,1.23
2023-03-12T21:48:48.129Z,1.21
2023-03-12T21:51:22.894Z,1.21
2023-03-12T21:53:57.937Z,1.17
2023-03-12T21:56:31.194Z,1.13
2023-03-12T21:59:04.196Z,1.09
2023-03-12T22:01:37.444Z,1.08
2023-03-12T22:04:10.389Z,1.00
2023-03-12T22:06:43.473Z,0.97
2023-03-12T22:09:17.003Z,0.93
2023-03-12T22:11:51.081Z,0.88
2023-03-12T22:14:25.474Z,0.86
2023-03-12T22:16:58.291Z,0.82
2023-03-12T22:19:31.059Z,0.80
2023-03-12T22:22:04.403Z,0.79
2023-03-12T22:24:37.899Z,0.77
2023-03-12T22:27:10.705Z,0.76
2023-03-12T22:29:43.978Z,0.76
2023-03-12T22:32:16.632Z,0.71
2023-03-12T22:34:50.540Z,0.68
2023-03-12T22:37:23.217Z,0.65
2023-03-12T22:39:57.906Z,0.64
2023-03-12T22:42:30.876Z,0.59
2023-03-12T22:45:04.043Z,0.52
2023-03-12T22:47:37.654Z,0.49
2023-03-12T22:50:11.929Z,0.49
2023-03-12T22:52:45.282Z,0.48
2023-03-12T22:55:18.486Z,0.46
2023-03-12T22:57:51.162Z,0.45
2023-03-12T23:00:24.177Z,0.42
2023-03-12T23:02:56.992Z,0.40
2023-03-12T23:05:29.902Z,0.39
2023-03-12T23:08:02.569Z,0.37
2023-03-12T23:10:36.011Z,0.37
2023-03-12T23:13:09.738Z,0.34
2023-03-12T23:15:43.094Z,0.31
2023-03-12T23:18:16.983Z,0.31
2023-03-12T23:20:55.509Z,0.25
2023-03-12T23:23:29.255Z,0.21
2023-03-12T23:26:03.655Z,0.23
2023-03-12T23:28:36.574Z,0.23
2023-03-12T23:31:12.166Z,0.21
2023-03-12T23:33:45.756Z,0.20
2023-03-12T23:36:23.840Z,0.19
2023-03-12T23:38:56.877Z,0.17
2023-03-12T23:41:31.058Z,0.10
2023-03-12T23:44:05.241Z,0.06
2023-03-12T23:46:38.759Z,0.02
2023-03-12T23:49:13.539Z,0.01
2023-03-12T23:51:47.734Z,-0.01
2023-03-12T23:54:20.660Z,-0.03
2023-03-12T23:56:53.717Z,-0.05
2023-03-12T23:59:26.388Z,-0.06
